Time;durP1;ratioP1;P1;durP2;ratioP2;P2;SDS_P1;SDS_P2;PMS_P1;PMS_P2;Temp;Humidity;BMP_temperature;BMP_pressure;BME280_temperature;BME280_humidity;BME280_pressure;Samples;Min_cycle;Max_cycle;Signal;HPM_P1;HPM_P2
2022/08/03 00:01:18;;;;;;;1.02;1.00;;;;;;;20.44;73.28;94519.41;5054663;28;20691;-66
2022/08/03 00:03:44;;;;;;;2.28;1.35;;;;;;;20.46;74.21;94509.69;5072651;28;20236;-65
2022/08/03 00:06:09;;;;;;;1.17;1.10;;;;;;;20.42;73.73;94516.22;5072636;28;20240;-66
2022/08/03 00:08:35;;;;;;;0.93;0.80;;;;;;;20.41;73.37;94516.44;5054736;28;20299;-65
2022/08/03 00:11:00;;;;;;;3.42;1.67;;;;;;;20.38;73.47;94519.41;5072490;28;20205;-62
2022/08/03 00:13:26;;;;;;;1.23;1.13;;;;;;;20.31;73.70;94514.22;5072475;28;20238;-61
2022/08/03 00:15:52;;;;;;;1.00;1.00;;;;;;;20.28;74.37;94499.09;5072581;28;20205;-64
2022/08/03 00:18:18;;;;;;;1.02;0.93;;;;;;;20.33;73.99;94511.44;5072408;28;20192;-64
2022/08/03 00:20:43;;;;;;;1.75;1.10;;;;;;;20.37;73.52;94517.81;5054416;28;20204;-64
2022/08/03 00:23:09;;;;;;;1.52;1.00;;;;;;;20.23;74.55;94496.31;5072404;28;20196;-64
2022/08/03 00:25:35;;;;;;;1.15;1.05;;;;;;;20.33;73.38;94509.66;5071319;28;20209;-64
2022/08/03 00:28:02;;;;;;;3.60;1.10;;;;;;;20.30;73.54;94515.19;5054180;28;20220;-61
2022/08/03 00:30:28;;;;;;;2.05;0.90;;;;;;;20.28;73.50;94518.97;5072057;28;20205;-62
2022/08/03 00:32:54;;;;;;;1.08;1.00;;;;;;;20.23;73.33;94522.13;5072189;28;20196;-61
2022/08/03 00:35:19;;;;;;;1.00;1.00;;;;;;;20.21;73.86;94516.34;5072118;28;20597;-65
2022/08/03 00:37:45;;;;;;;2.38;1.10;;;;;;;20.20;73.32;94525.06;5072182;28;20713;-62
2022/08/03 00:40:15;;;;;;;0.85;0.85;;;;;;;19.96;74.54;94500.50;5071573;28;20185;-64
2022/08/03 00:42:52;;;;;;;0.65;0.65;;;;;;;19.84;75.07;94483.16;5072321;28;20234;-65
2022/08/03 00:45:20;;;;;;;1.20;1.10;;;;;;;19.77;75.41;94484.94;5071917;28;20188;-65
2022/08/03 00:47:45;;;;;;;1.40;1.08;;;;;;;19.73;76.10;94475.97;5071901;28;20191;-66
2022/08/03 00:50:12;;;;;;;1.20;1.10;;;;;;;19.67;76.15;94479.31;5071703;28;20177;-65
2022/08/03 00:52:38;;;;;;;2.20;1.10;;;;;;;19.44;77.91;94458.13;5071870;28;20219;-65
2022/08/03 00:55:04;;;;;;;1.25;1.00;;;;;;;19.38;78.53;94451.94;5071819;28;20268;-63
2022/08/03 00:57:31;;;;;;;1.13;1.02;;;;;;;19.33;79.05;94456.88;5071820;28;20258;-61
2022/08/03 00:59:58;;;;;;;1.45;1.05;;;;;;;19.29;79.40;94458.19;5071754;28;20181;-60
2022/08/03 01:02:25;;;;;;;3.65;1.05;;;;;;;19.12;80.01;94451.72;5053775;28;20213;-61
2022/08/03 01:04:50;;;;;;;2.80;1.10;;;;;;;19.13;80.52;94451.53;5071646;28;20215;-61
2022/08/03 01:07:27;;;;;;;1.05;0.93;;;;;;;19.18;80.06;94456.13;5072225;28;20232;-61
2022/08/03 01:10:20;;;;;;;0.93;0.93;;;;;;;19.06;80.48;94445.53;5071739;28;20212;-65
2022/08/03 01:13:20;;;;;;;1.30;1.20;;;;;;;19.03;81.08;94445.91;5071585;28;20334;-61
2022/08/03 01:15:59;;;;;;;1.95;0.95;;;;;;;18.98;81.74;94453.41;5045495;28;20319;-62
2022/08/03 01:18:47;;;;;;;2.35;1.00;;;;;;;18.91;81.79;94451.72;5071729;28;20217;-66
2022/08/03 01:21:20;;;;;;;0.88;0.88;;;;;;;18.93;81.43;94460.88;5057696;28;20240;-64
2022/08/03 01:24:30;;;;;;;2.30;1.38;;;;;;;18.98;81.80;94452.59;5071403;28;20254;-66
2022/08/03 01:27:14;;;;;;;1.20;1.15;;;;;;;18.92;81.66;94458.50;5009961;28;20715;-63
2022/08/03 01:29:52;;;;;;;1.10;1.00;;;;;;;19.12;81.61;94452.53;5071491;28;20299;-62
2022/08/03 01:32:26;;;;;;;2.47;1.02;;;;;;;19.12;81.35;94455.09;5071399;28;20243;-62
2022/08/03 01:35:03;;;;;;;1.75;1.20;;;;;;;18.97;81.36;94462.09;5053267;28;20684;-63
2022/08/03 01:37:50;;;;;;;1.88;0.98;;;;;;;18.94;81.29;94464.25;5071518;28;20279;-64
2022/08/03 01:40:18;;;;;;;2.15;1.10;;;;;;;18.83;81.90;94457.81;5053058;28;20185;-62
2022/08/03 01:42:45;;;;;;;1.23;1.20;;;;;;;18.70;83.13;94449.19;5071172;28;20314;-61
2022/08/03 01:45:14;;;;;;;1.38;1.17;;;;;;;18.77;83.41;94452.59;5071133;28;20665;-64
2022/08/03 01:47:40;;;;;;;1.20;1.10;;;;;;;18.79;82.87;94458.34;5070940;28;20206;-61
2022/08/03 01:50:09;;;;;;;1.42;1.33;;;;;;;18.80;83.14;94458.19;5053120;28;20176;-62
2022/08/03 01:52:39;;;;;;;1.55;1.10;;;;;;;18.62;84.31;94446.72;5069923;28;20188;-64
2022/08/03 01:55:05;;;;;;;3.22;1.15;;;;;;;18.49;85.57;94444.81;5070905;28;20192;-60
2022/08/03 01:57:34;;;;;;;1.20;1.20;;;;;;;18.42;85.93;94446.50;5052958;28;20284;-65
2022/08/03 02:00:00;;;;;;;1.05;1.05;;;;;;;18.28;87.38;94445.53;5053041;28;20775;-62
2022/08/03 02:02:28;;;;;;;1.20;1.05;;;;;;;18.22;88.18;94453.22;5036456;28;20209;-63
2022/08/03 02:04:56;;;;;;;1.20;1.10;;;;;;;18.28;88.12;94455.06;5070805;28;20185;-62
2022/08/03 02:07:24;;;;;;;1.73;1.10;;;;;;;18.38;87.56;94463.28;5071169;28;20666;-62
2022/08/03 02:09:52;;;;;;;1.33;1.10;;;;;;;18.31;87.67;94465.78;5070732;28;20290;-64
2022/08/03 02:12:19;;;;;;;1.48;1.20;;;;;;;18.30;87.89;94451.31;5071040;28;20219;-62
2022/08/03 02:14:47;;;;;;;3.53;1.30;;;;;;;18.39;87.00;94465.66;5070860;28;20185;-65
2022/08/03 02:17:13;;;;;;;2.50;1.33;;;;;;;18.46;87.10;94460.63;5070848;28;20200;-64
2022/08/03 02:19:39;;;;;;;1.10;1.00;;;;;;;18.49;86.46;94473.13;5070786;28;20212;-65
2022/08/03 02:22:09;;;;;;;2.05;1.23;;;;;;;18.40;88.01;94449.22;5070519;28;20213;-64
2022/08/03 02:24:34;;;;;;;1.48;1.35;;;;;;;18.58;87.35;94466.09;5070575;28;20200;-63
2022/08/03 02:27:03;;;;;;;1.08;1.08;;;;;;;18.65;87.04;94469.50;5070458;28;20205;-63
2022/08/03 02:29:33;;;;;;;1.40;1.30;;;;;;;18.58;87.60;94463.50;5070673;28;20208;-64
2022/08/03 02:32:00;;;;;;;1.15;1.05;;;;;;;18.72;85.68;94493.56;5036060;28;20204;-65
2022/08/03 02:34:28;;;;;;;5.15;1.38;;;;;;;18.69;85.49;94491.34;5070514;28;20200;-62
2022/08/03 02:36:59;;;;;;;1.50;1.40;;;;;;;18.71;85.04;94492.75;5070748;28;20215;-61
2022/08/03 02:39:27;;;;;;;1.77;1.20;;;;;;;18.61;85.67;94481.16;5070603;28;20271;-65
2022/08/03 02:42:01;;;;;;;1.30;1.20;;;;;;;18.50;87.40;94458.47;5070584;28;20690;-65
2022/08/03 02:44:30;;;;;;;2.40;1.27;;;;;;;18.49;88.68;94456.88;5070472;28;20249;-62
2022/08/03 02:47:04;;;;;;;2.55;1.23;;;;;;;18.55;88.06;94467.25;5070166;28;20216;-61
2022/08/03 02:49:31;;;;;;;1.05;1.00;;;;;;;18.76;86.33;94487.06;5070295;28;20212;-64
2022/08/03 02:51:58;;;;;;;1.27;1.23;;;;;;;18.84;85.80;94497.25;5070546;28;20208;-65
2022/08/03 02:54:25;;;;;;;1.70;1.20;;;;;;;18.87;85.20;94497.69;5070284;28;20663;-61
2022/08/03 02:56:53;;;;;;;2.55;1.55;;;;;;;18.96;85.04;94503.50;5052360;28;20209;-61
2022/08/03 02:59:20;;;;;;;3.00;1.52;;;;;;;19.06;83.40;94525.41;5070139;28;20244;-65
2022/08/03 03:01:46;;;;;;;2.70;1.25;;;;;;;19.01;83.54;94519.19;5070095;28;20697;-62
2022/08/03 03:04:12;;;;;;;1.02;1.02;;;;;;;19.00;83.79;94515.84;5071837;28;20239;-63
2022/08/03 03:06:40;;;;;;;1.20;1.10;;;;;;;18.96;83.85;94521.56;5073433;28;20209;-66
2022/08/03 03:09:06;;;;;;;2.45;1.70;;;;;;;19.04;83.86;94535.13;5073504;28;20216;-67
2022/08/03 03:11:34;;;;;;;1.13;1.13;;;;;;;18.94;83.90;94529.47;5073273;28;20204;-66
2022/08/03 03:14:01;;;;;;;1.92;1.38;;;;;;;18.94;84.24;94524.31;5073400;28;20195;-66
2022/08/03 03:16:29;;;;;;;1.25;1.10;;;;;;;18.87;84.83;94507.19;5073781;28;20205;-66
2022/08/03 03:18:56;;;;;;;3.55;1.55;;;;;;;18.88;84.56;94522.47;5073356;28;20268;-63
2022/08/03 03:21:30;;;;;;;1.83;1.60;;;;;;;18.83;85.53;94503.38;5073476;28;20586;-64
2022/08/03 03:23:56;;;;;;;1.52;1.40;;;;;;;18.71;84.83;94523.66;5073518;28;20192;-65
2022/08/03 03:26:22;;;;;;;1.60;1.50;;;;;;;18.69;84.10;94543.66;5073033;28;20200;-65
2022/08/03 03:28:47;;;;;;;1.77;1.60;;;;;;;18.63;85.37;94525.56;5073140;28;20213;-64
2022/08/03 03:31:13;;;;;;;1.27;1.17;;;;;;;18.44;86.09;94508.94;5072975;28;20219;-63
2022/08/03 03:33:39;;;;;;;1.60;1.50;;;;;;;18.36;87.00;94509.78;5073131;28;20185;-64
2022/08/03 03:36:06;;;;;;;1.85;1.40;;;;;;;18.06;89.14;94476.56;5073252;28;20278;-63
2022/08/03 03:38:32;;;;;;;4.75;1.55;;;;;;;18.21;89.01;94496.16;5073119;28;20205;-62
2022/08/03 03:40:58;;;;;;;2.45;1.60;;;;;;;18.18;89.47;94488.78;5073144;28;20291;-60
2022/08/03 03:43:24;;;;;;;2.05;1.63;;;;;;;18.21;89.82;94485.84;5073022;28;20203;-62
2022/08/03 03:45:52;;;;;;;2.58;1.73;;;;;;;18.27;89.37;94499.78;5073113;28;20205;-62
2022/08/03 03:48:19;;;;;;;1.35;1.25;;;;;;;18.26;89.95;94488.69;5072739;28;20215;-66
2022/08/03 03:50:45;;;;;;;3.10;1.63;;;;;;;18.21;89.71;94501.31;5072881;28;20287;-66
2022/08/03 03:53:13;;;;;;;1.60;1.50;;;;;;;18.35;89.05;94505.63;5072768;28;20180;-66
2022/08/03 03:55:39;;;;;;;2.55;1.65;;;;;;;18.23;89.47;94504.50;5072872;28;20216;-67
2022/08/03 03:58:05;;;;;;;1.70;1.50;;;;;;;18.39;89.74;94514.59;5054768;28;20250;-65
2022/08/03 04:00:31;;;;;;;4.20;1.58;;;;;;;18.55;93.16;94500.72;5072690;28;20212;-64
2022/08/03 04:02:57;;;;;;;1.83;1.45;;;;;;;18.80;92.03;94506.34;5072628;28;20570;-66
2022/08/03 04:11:16;;;;;;;2.05;1.38;;;;;;;19.16;87.24;94549.09;5073035;28;20271;-61
2022/08/03 04:13:50;;;;;;;2.08;1.60;;;;;;;19.16;84.60;94587.75;5072634;28;20188;-64
2022/08/03 04:16:19;;;;;;;1.60;1.17;;;;;;;19.19;85.12;94561.59;5071663;28;20200;-65
2022/08/03 04:18:50;;;;;;;5.22;1.83;;;;;;;19.25;82.49;94599.53;5072540;28;20223;-63
2022/08/03 04:21:19;;;;;;;4.28;1.80;;;;;;;19.11;83.65;94586.69;5054615;28;20292;-63
2022/08/03 04:23:48;;;;;;;3.92;1.90;;;;;;;18.80;86.21;94535.47;5072382;28;20279;-64
2022/08/03 04:26:18;;;;;;;3.13;2.10;;;;;;;18.94;88.05;94505.47;5072700;28;20730;-61
2022/08/03 04:28:45;;;;;;;3.25;2.20;;;;;;;19.09;89.15;94516.50;5072279;28;20224;-62
2022/08/03 04:31:12;;;;;;;2.17;1.90;;;;;;;19.17;86.00;94553.25;5054190;28;20216;-62
2022/08/03 04:33:38;;;;;;;5.05;2.78;;;;;;;19.23;84.86;94562.03;5072296;28;20177;-64
2022/08/03 04:36:06;;;;;;;5.05;2.28;;;;;;;19.44;83.35;94598.16;5072154;28;20213;-65
2022/08/03 04:38:37;;;;;;;5.10;2.42;;;;;;;19.56;82.21;94612.16;5072016;28;20211;-66
2022/08/03 04:41:03;;;;;;;5.63;2.88;;;;;;;19.54;84.65;94570.28;5071990;28;20216;-66
2022/08/03 04:43:31;;;;;;;6.13;2.17;;;;;;;19.68;82.68;94613.25;5071620;28;20220;-65
2022/08/03 04:45:58;;;;;;;4.72;2.40;;;;;;;19.69;81.61;94627.75;5052866;28;20217;-66
2022/08/03 04:48:23;;;;;;;3.30;2.33;;;;;;;19.59;82.24;94623.88;5071733;28;20197;-65
2022/08/03 04:50:49;;;;;;;5.20;2.85;;;;;;;19.61;82.52;94622.72;5070798;28;20674;-65
2022/08/03 04:53:15;;;;;;;7.88;2.40;;;;;;;19.66;88.22;94537.84;5072019;28;20263;-65
2022/08/03 04:55:41;;;;;;;5.35;2.83;;;;;;;20.03;83.29;94624.44;5071930;28;20231;-61
2022/08/03 04:58:07;;;;;;;7.78;2.90;;;;;;;20.14;83.57;94610.22;5071768;28;20192;-61
2022/08/03 05:00:32;;;;;;;5.28;2.90;;;;;;;20.24;85.67;94574.56;5071978;28;20234;-63
2022/08/03 05:02:58;;;;;;;3.42;3.00;;;;;;;20.54;81.76;94650.81;5071779;28;20275;-62
2022/08/03 05:05:23;;;;;;;6.18;2.90;;;;;;;20.61;80.20;94662.78;5071583;28;20197;-63
2022/08/03 05:07:49;;;;;;;7.78;2.75;;;;;;;20.70;82.89;94609.97;5071639;28;20671;-63
2022/08/03 05:10:15;;;;;;;9.20;3.38;;;;;;;20.72;79.53;94671.78;5053575;28;20224;-61
2022/08/03 05:12:41;;;;;;;3.00;2.63;;;;;;;20.81;77.92;94710.19;5071725;28;20238;-64
2022/08/03 05:15:07;;;;;;;3.13;2.75;;;;;;;20.67;79.15;94674.13;5071234;28;20596;-64
2022/08/03 05:17:32;;;;;;;4.18;2.20;;;;;;;20.59;77.97;94697.53;5071479;28;20181;-63
2022/08/03 05:19:59;;;;;;;3.25;2.35;;;;;;;20.62;81.18;94637.75;5071521;28;20235;-61
2022/08/03 05:22:24;;;;;;;2.63;1.75;;;;;;;20.98;80.40;94658.97;5071368;28;20290;-64
2022/08/03 05:24:50;;;;;;;3.25;2.20;;;;;;;21.25;77.94;94699.47;5071486;28;20663;-65
2022/08/03 05:27:19;;;;;;;1.80;1.70;;;;;;;21.58;76.62;94739.19;5071140;28;20575;-62
2022/08/03 05:29:48;;;;;;;4.35;2.55;;;;;;;21.77;74.98;94764.31;5071291;28;20603;-64
2022/08/03 05:32:15;;;;;;;5.78;3.30;;;;;;;21.68;76.10;94734.44;5071781;28;20229;-65
2022/08/03 05:34:41;;;;;;;2.63;2.42;;;;;;;21.57;78.03;94700.59;5071480;28;20185;-65
2022/08/03 05:37:07;;;;;;;5.63;4.38;;;;;;;21.69;76.93;94728.25;5071899;28;20215;-63
2022/08/03 05:39:33;;;;;;;11.00;4.95;;;;;;;21.80;76.00;94744.22;5053633;28;20176;-65
2022/08/03 05:41:58;;;;;;;7.07;4.90;;;;;;;21.58;76.41;94731.44;5053266;28;20215;-65
2022/08/03 05:44:24;;;;;;;12.30;5.85;;;;;;;21.48;76.33;94725.84;5071211;28;20610;-64
2022/08/03 05:46:50;;;;;;;7.63;4.68;;;;;;;21.41;78.36;94688.78;5071041;28;20728;-63
2022/08/03 05:49:15;;;;;;;7.20;5.90;;;;;;;21.57;76.70;94724.66;5071029;28;20702;-63
2022/08/03 05:51:41;;;;;;;7.30;3.65;;;;;;;21.50;76.55;94721.25;5071288;28;20204;-62
2022/08/03 05:54:06;;;;;;;7.47;4.82;;;;;;;21.47;81.44;94632.91;5071036;28;20189;-65
2022/08/03 05:56:32;;;;;;;7.78;4.40;;;;;;;21.74;76.86;94732.84;5071263;28;20208;-66
2022/08/03 05:58:57;;;;;;;7.60;4.25;;;;;;;21.81;77.97;94719.94;5070877;28;20214;-64
2022/08/03 06:01:22;;;;;;;6.75;4.10;;;;;;;21.76;79.28;94689.47;5071048;28;20674;-62
2022/08/03 06:03:49;;;;;;;16.58;4.75;;;;;;;21.83;77.38;94730.91;5070868;28;20181;-63
2022/08/03 06:06:15;;;;;;;7.93;4.03;;;;;;;21.79;75.77;94751.22;5052937;28;20314;-63
2022/08/03 06:08:41;;;;;;;4.65;3.60;;;;;;;21.85;82.27;94627.97;5070866;28;20347;-61
2022/08/03 06:11:07;;;;;;;7.03;4.30;;;;;;;21.98;78.58;94709.03;5070873;28;20236;-64
2022/08/03 06:13:33;;;;;;;4.78;3.50;;;;;;;22.00;74.65;94779.53;5070974;28;20229;-64
2022/08/03 06:15:58;;;;;;;4.55;3.45;;;;;;;22.05;75.53;94764.22;5071013;28;20642;-63
2022/08/03 06:18:24;;;;;;;7.13;4.07;;;;;;;21.96;79.24;94676.59;5070818;28;20571;-64
2022/08/03 06:20:50;;;;;;;8.95;4.28;;;;;;;22.15;77.76;94704.25;5070841;28;20666;-63
2022/08/03 06:23:16;;;;;;;11.00;4.43;;;;;;;22.14;75.54;94749.31;5070572;28;20222;-62
2022/08/03 06:25:42;;;;;;;6.72;2.97;;;;;;;22.48;75.79;94743.94;5070429;28;20216;-61
2022/08/03 06:28:07;;;;;;;5.10;3.53;;;;;;;22.75;72.04;94818.09;5070362;28;20563;-62
2022/08/03 06:30:33;;;;;;;7.30;3.15;;;;;;;22.77;74.47;94763.44;5052531;28;20216;-62
2022/08/03 06:32:58;;;;;;;6.50;3.63;;;;;;;22.88;71.82;94820.72;5070679;28;20572;-63
2022/08/03 06:35:26;;;;;;;3.67;3.30;;;;;;;22.97;73.77;94783.19;5070550;28;20224;-65
2022/08/03 06:37:52;;;;;;;9.95;3.55;;;;;;;23.05;71.17;94821.06;5052567;28;20279;-62
2022/08/03 06:40:27;;;;;;;9.13;3.78;;;;;;;23.03;73.11;94778.97;5073909;28;20195;-66
2022/08/03 06:42:52;;;;;;;5.40;3.40;;;;;;;23.21;71.85;94798.09;5074381;28;20203;-66
2022/08/03 06:45:18;;;;;;;4.35;3.08;;;;;;;23.55;69.60;94853.34;5074049;28;20177;-66
2022/08/03 06:47:43;;;;;;;5.53;3.55;;;;;;;23.74;68.44;94860.25;5074147;28;20384;-64
2022/08/03 06:50:09;;;;;;;5.93;2.75;;;;;;;23.83;68.46;94866.84;5073880;28;20173;-64
2022/08/03 06:55:19;;;;;;;6.85;3.10;;;;;;;23.99;65.74;94906.13;5073798;28;20239;-65
2022/08/03 06:57:44;;;;;;;10.43;4.15;;;;;;;23.85;65.20;94907.19;5073950;28;20193;-65
2022/08/03 07:00:10;;;;;;;5.80;4.20;;;;;;;23.70;66.99;94861.66;5073612;28;20203;-63
2022/08/03 07:02:37;;;;;;;6.20;3.45;;;;;;;23.78;69.03;94812.09;5055611;28;20192;-63
2022/08/03 07:05:03;;;;;;;7.00;4.13;;;;;;;23.84;67.59;94837.25;5073854;28;20181;-63
2022/08/03 07:07:28;;;;;;;6.60;3.75;;;;;;;23.90;66.91;94859.78;5073898;28;20259;-63
2022/08/03 07:09:54;;;;;;;4.97;3.47;;;;;;;24.07;66.74;94863.56;5055756;28;20315;-65
2022/08/03 07:12:19;;;;;;;4.45;3.20;;;;;;;24.30;66.51;94869.03;5073903;28;20208;-65
2022/08/03 07:14:45;;;;;;;5.78;3.35;;;;;;;24.34;64.42;94919.59;5073626;28;20177;-65
2022/08/03 07:17:10;;;;;;;8.27;3.60;;;;;;;24.53;64.66;94903.09;5055529;28;20657;-63
2022/08/03 07:19:35;;;;;;;6.35;4.20;;;;;;;24.69;63.43;94930.41;5081046;22;20225;-63
2022/08/03 07:22:02;;;;;;;4.45;3.20;;;;;;;24.74;64.28;94889.81;5073486;28;20201;-65
2022/08/03 07:24:28;;;;;;;6.30;3.65;;;;;;;24.79;64.33;94900.34;5073478;28;20277;-65
2022/08/03 07:26:53;;;;;;;6.10;3.88;;;;;;;24.90;62.96;94930.09;5073453;28;20623;-61
2022/08/03 07:29:19;;;;;;;5.13;3.70;;;;;;;25.02;63.48;94901.59;5073132;28;20266;-63
2022/08/03 07:31:44;;;;;;;9.43;3.60;;;;;;;25.15;63.12;94914.50;5055406;28;20694;-63
2022/08/03 07:34:10;;;;;;;4.32;3.72;;;;;;;25.41;62.26;94941.13;5055546;28;20193;-61
2022/08/03 07:36:35;;;;;;;10.13;4.40;;;;;;;25.62;59.55;94992.03;5073307;28;20300;-64
2022/08/03 07:39:01;;;;;;;8.73;3.80;;;;;;;25.57;60.85;94935.38;5073594;28;20188;-66
2022/08/03 07:41:27;;;;;;;8.88;3.83;;;;;;;25.51;61.11;94938.06;5073248;28;20212;-66
2022/08/03 07:43:52;;;;;;;6.05;3.65;;;;;;;25.80;59.65;94966.81;5073687;28;20192;-61
2022/08/03 07:46:17;;;;;;;6.55;3.67;;;;;;;25.91;60.26;94939.25;5038572;28;20217;-60
2022/08/03 07:48:43;;;;;;;6.05;3.42;;;;;;;25.84;60.54;94930.69;5073167;28;20208;-65
2022/08/03 07:51:09;;;;;;;4.80;3.15;;;;;;;25.95;59.65;94955.25;5071535;28;20278;-65
2022/08/03 07:53:34;;;;;;;6.50;3.05;;;;;;;25.70;58.85;94973.53;5073659;28;20264;-65
2022/08/03 07:55:59;;;;;;;6.43;3.55;;;;;;;25.63;59.29;94952.75;5073019;28;20233;-65
2022/08/03 07:58:25;;;;;;;6.43;3.22;;;;;;;25.80;57.75;94989.47;5073360;28;20189;-65
2022/08/03 08:00:51;;;;;;;4.57;3.35;;;;;;;25.86;58.12;94965.16;5073145;28;20562;-65
2022/08/03 08:03:17;;;;;;;8.15;3.60;;;;;;;25.62;58.38;94956.38;5073004;28;20189;-65
2022/08/03 08:05:43;;;;;;;5.93;3.00;;;;;;;25.82;58.72;94943.16;5054665;28;20205;-65
2022/08/03 08:08:09;;;;;;;3.72;3.40;;;;;;;25.89;58.54;94949.09;5072999;28;20247;-64
2022/08/03 08:10:35;;;;;;;7.15;3.30;;;;;;;26.13;58.38;94952.69;5072848;28;20215;-66
2022/08/03 08:13:01;;;;;;;6.10;3.28;;;;;;;26.39;57.96;94968.81;5072842;28;20189;-65
2022/08/03 08:15:27;;;;;;;9.90;3.63;;;;;;;26.61;56.69;94992.63;5072825;28;20299;-65
2022/08/03 08:17:55;;;;;;;5.07;2.92;;;;;;;26.67;55.71;95033.47;5073043;28;20217;-63
2022/08/03 08:20:22;;;;;;;7.75;5.75;;;;;;;26.59;54.64;95047.63;5072639;28;20216;-65
2022/08/03 08:22:48;;;;;;;7.55;3.10;;;;;;;26.56;54.41;95042.06;5072696;28;20219;-64
2022/08/03 08:25:14;;;;;;;6.80;3.63;;;;;;;26.70;55.43;95006.97;5072634;28;20610;-63
2022/08/03 08:27:41;;;;;;;5.97;3.40;;;;;;;26.61;55.53;95001.25;5072643;28;20189;-63
2022/08/03 08:30:07;;;;;;;5.60;2.97;;;;;;;26.66;53.39;95072.84;5072265;28;20213;-62
2022/08/03 08:32:33;;;;;;;4.45;2.50;;;;;;;26.72;55.06;95006.75;5072400;28;20181;-62
2022/08/03 08:34:59;;;;;;;5.82;2.83;;;;;;;26.57;53.41;95056.69;5054577;28;20628;-62
2022/08/03 08:37:24;;;;;;;7.43;3.10;;;;;;;26.53;52.94;95061.53;5072140;28;20664;-65
2022/08/03 08:39:50;;;;;;;7.93;3.10;;;;;;;26.53;52.01;95079.78;5054438;28;20203;-64
2022/08/03 08:42:15;;;;;;;4.03;2.67;;;;;;;26.75;51.43;95074.94;5072261;28;20197;-64
2022/08/03 08:44:41;;;;;;;3.58;3.28;;;;;;;27.00;52.38;95052.16;5054649;28;20200;-65
2022/08/03 08:47:07;;;;;;;6.45;3.00;;;;;;;26.82;51.48;95072.28;5072275;28;20749;-65
2022/08/03 08:49:35;;;;;;;8.82;3.38;;;;;;;26.71;51.41;95067.75;5072292;28;20676;-65
2022/08/03 08:52:03;;;;;;;4.65;2.90;;;;;;;27.02;52.63;95033.66;5072021;28;20220;-64
2022/08/03 08:54:31;;;;;;;3.40;2.40;;;;;;;27.00;51.43;95067.84;5072246;28;20196;-65
2022/08/03 08:57:02;;;;;;;3.70;2.97;;;;;;;27.36;50.01;95111.34;5072017;28;20200;-65
2022/08/03 08:59:28;;;;;;;4.10;3.45;;;;;;;27.48;49.96;95093.91;5054102;28;20199;-66
2022/08/03 09:01:57;;;;;;;5.03;2.92;;;;;;;27.50;50.83;95068.34;5071472;28;20215;-64
2022/08/03 09:04:23;;;;;;;5.78;3.13;;;;;;;27.58;51.50;95036.69;5072429;28;20591;-65
2022/08/03 09:06:51;;;;;;;5.95;3.67;;;;;;;27.79;49.81;95092.84;5072171;28;20213;-64
2022/08/03 09:09:16;;;;;;;6.25;3.33;;;;;;;27.84;50.74;95056.34;5072300;28;20212;-65
2022/08/03 09:11:42;;;;;;;3.85;3.35;;;;;;;28.01;51.31;95034.59;5071953;28;20280;-62
2022/08/03 09:14:08;;;;;;;7.68;2.78;;;;;;;28.11;48.02;95136.00;5071971;28;20193;-61
2022/08/03 09:16:34;;;;;;;3.92;2.92;;;;;;;28.29;47.64;95142.94;5071728;28;20201;-62
2022/08/03 09:19:12;;;;;;;4.15;2.30;;;;;;;28.37;47.12;95012.59;5053810;28;20208;-64
2022/08/03 09:21:38;;;;;;;5.47;2.50;;;;;;;28.18;47.65;94959.63;5071718;28;20207;-65
2022/08/03 09:24:05;;;;;;;3.15;2.22;;;;;;;28.14;48.73;94937.59;5072224;28;20193;-62
2022/08/03 09:26:35;;;;;;;3.97;3.03;;;;;;;28.43;48.47;94919.31;5071895;28;20599;-65
2022/08/03 09:29:10;;;;;;;3.97;2.38;;;;;;;28.30;47.57;94956.22;5071943;28;20212;-65
2022/08/03 09:31:39;;;;;;;2.63;2.28;;;;;;;28.80;44.94;94992.03;5053662;28;20705;-65
2022/08/03 09:34:13;;;;;;;5.32;2.50;;;;;;;28.42;45.49;94967.44;5071650;28;20200;-65
2022/08/03 09:36:47;;;;;;;3.53;2.25;;;;;;;28.79;43.71;95000.09;5071571;28;20209;-65
2022/08/03 09:39:14;;;;;;;2.22;1.85;;;;;;;28.77;45.82;94947.19;5071534;28;20189;-64
2022/08/03 09:42:10;;;;;;;5.72;3.40;;;;;;;29.16;45.53;94948.94;5071262;28;20239;-65
2022/08/03 09:44:43;;;;;;;4.28;2.45;;;;;;;29.69;44.45;94967.63;5071441;28;20237;-65
2022/08/03 09:47:10;;;;;;;5.70;2.92;;;;;;;29.46;45.30;94943.38;5070976;28;20293;-62
2022/08/03 09:49:37;;;;;;;3.75;2.13;;;;;;;29.49;43.23;95000.59;5071459;28;20213;-65
2022/08/03 09:52:21;;;;;;;2.40;1.98;;;;;;;29.94;41.94;95013.63;5071047;28;20215;-66
2022/08/03 09:54:52;;;;;;;3.22;2.42;;;;;;;30.09;42.79;94971.84;5053724;28;20224;-66
2022/08/03 09:57:23;;;;;;;6.40;1.98;;;;;;;29.98;42.23;94983.25;5071310;28;20205;-63
2022/08/03 09:59:50;;;;;;;7.05;2.10;;;;;;;29.73;41.94;94987.09;5053348;28;20254;-61
2022/08/03 10:02:21;;;;;;;2.83;1.88;;;;;;;29.57;44.23;94917.06;5071005;28;20200;-64
2022/08/03 10:04:48;;;;;;;2.08;1.92;;;;;;;30.23;42.50;94970.47;5070897;28;20193;-65
2022/08/03 10:07:23;;;;;;;2.97;1.67;;;;;;;30.75;41.64;94991.84;5071028;28;20217;-66
2022/08/03 10:09:54;;;;;;;3.38;1.80;;;;;;;31.11;39.92;95013.00;5072730;28;20219;-65
2022/08/03 10:12:20;;;;;;;3.92;1.75;;;;;;;30.83;39.83;95010.56;5070809;28;20285;-66
2022/08/03 10:14:46;;;;;;;2.22;2.03;;;;;;;30.49;41.18;94957.44;5070336;28;20639;-65
2022/08/03 10:17:12;;;;;;;2.45;1.90;;;;;;;31.12;41.31;94948.13;5052891;28;20224;-64
2022/08/03 10:19:38;;;;;;;3.80;1.83;;;;;;;31.18;41.12;94962.88;5070889;28;20208;-63
2022/08/03 10:22:09;;;;;;;3.42;1.70;;;;;;;31.19;38.97;95006.53;5070763;28;20247;-62
2022/08/03 10:24:36;;;;;;;2.05;1.92;;;;;;;31.55;37.46;95036.56;5052825;28;20643;-62
2022/08/03 10:27:06;;;;;;;2.35;1.80;;;;;;;31.22;38.77;94993.69;5070547;28;20254;-63
2022/08/03 10:29:41;;;;;;;2.03;1.88;;;;;;;31.18;38.58;94982.06;5070591;28;20307;-65
2022/08/03 10:32:13;;;;;;;3.80;2.03;;;;;;;32.00;38.11;94982.47;5070472;28;20200;-65
2022/08/03 10:34:41;;;;;;;3.90;1.88;;;;;;;31.95;37.32;95014.03;5070516;28;20686;-65
2022/08/03 10:37:10;;;;;;;1.90;1.80;;;;;;;31.95;36.43;95036.91;5070496;28;20201;-66
2022/08/03 10:39:35;;;;;;;1.88;1.77;;;;;;;32.25;36.82;95021.31;5070422;28;20276;-65
2022/08/03 10:42:02;;;;;;;4.32;1.60;;;;;;;32.55;36.17;95010.16;5070455;28;20673;-64
2022/08/03 10:44:36;;;;;;;1.60;1.50;;;;;;;31.89;37.44;94980.03;5070356;28;20738;-66
2022/08/03 10:47:03;;;;;;;1.95;1.85;;;;;;;31.96;36.79;94991.13;5052425;28;20236;-64
2022/08/03 10:49:29;;;;;;;2.08;1.95;;;;;;;32.34;35.84;95014.53;5070488;28;20204;-65
2022/08/03 10:51:54;;;;;;;4.55;1.52;;;;;;;32.35;35.81;95008.19;5052348;28;20215;-65
2022/08/03 10:57:33;;;;;;;2.30;1.80;;;;;;;32.63;35.48;95010.47;5070847;28;20650;-64
2022/08/03 10:57:54;;;;;;;2.50;2.30;;;;;;;32.76;35.62;95007.34;5070041;28;20236;-64
2022/08/03 11:00:24;;;;;;;2.08;1.98;;;;;;;33.03;35.56;95004.53;5052350;28;20193;-65
2022/08/03 11:03:08;;;;;;;2.80;1.70;;;;;;;33.49;35.37;94986.97;5052194;28;20197;-65
2022/08/03 11:05:44;;;;;;;3.13;1.70;;;;;;;33.68;35.52;94977.47;5070135;28;20329;-65
2022/08/03 11:08:42;;;;;;;5.10;1.55;;;;;;;33.75;35.07;94980.63;5070253;28;20211;-65
2022/08/03 11:11:16;;;;;;;4.70;1.70;;;;;;;33.65;34.61;94986.72;5025851;28;20225;-65
2022/08/03 11:14:03;;;;;;;2.10;1.77;;;;;;;33.30;34.79;94962.94;5070114;28;20180;-66
2022/08/03 11:16:34;;;;;;;2.67;1.73;;;;;;;33.19;35.09;94952.66;5077677;22;20224;-66
2022/08/03 11:19:07;;;;;;;3.70;1.67;;;;;;;33.15;36.96;94901.50;5070274;28;20260;-67
2022/08/03 11:24:07;;;;;;;3.13;2.10;;;;;;;33.43;35.90;94908.88;5077389;22;20216;-66
2022/08/03 11:26:33;;;;;;;3.83;1.95;;;;;;;33.58;36.03;94912.31;5073407;28;20219;-66
2022/08/03 11:31:33;;;;;;;2.95;1.70;;;;;;;33.02;36.09;94893.06;5080652;22;20236;-66
2022/08/03 11:34:13;;;;;;;1.75;1.60;;;;;;;33.72;34.94;94920.47;5073388;28;20188;-66
2022/08/03 11:39:44;;;;;;;1.50;1.40;;;;;;;33.96;32.20;94960.28;5080964;22;20726;-63
2022/08/03 11:42:22;;;;;;;3.08;1.48;;;;;;;34.15;32.66;94916.41;5073176;28;20287;-64
2022/08/03 11:44:49;;;;;;;4.15;1.58;;;;;;;34.52;32.22;94928.16;5073381;28;20192;-64
2022/08/03 11:47:16;;;;;;;2.15;1.95;;;;;;;33.92;34.26;94872.13;5073166;28;20196;-65
2022/08/03 11:49:53;;;;;;;1.55;1.45;;;;;;;33.21;35.00;94851.13;5072901;28;20218;-64
2022/08/03 11:52:19;;;;;;;2.42;1.65;;;;;;;32.18;37.15;94794.38;5055178;28;20740;-66
2022/08/03 11:54:44;;;;;;;5.40;2.33;;;;;;;31.32;38.90;94759.84;5073037;28;20190;-63
2022/08/03 11:57:10;;;;;;;3.72;2.03;;;;;;;31.50;38.74;94760.47;5072865;28;20201;-66